sensor_id;sensor_type;location;lat;lon;timestamp;temperature;humidity
73576;DHT22;61859;49.204;8.140;2023-07-13T00:01:48;19.60;63.00
73576;DHT22;61859;49.204;8.140;2023-07-13T00:04:16;19.50;63.30
73576;DHT22;61859;49.204;8.140;2023-07-13T00:06:43;19.60;63.70
73576;DHT22;61859;49.204;8.140;2023-07-13T00:09:11;19.40;63.90
73576;DHT22;61859;49.204;8.140;2023-07-13T00:11:38;19.30;64.40
73576;DHT22;61859;49.204;8.140;2023-07-13T00:14:05;19.30;64.80
73576;DHT22;61859;49.204;8.140;2023-07-13T00:16:30;19.30;64.70
73576;DHT22;61859;49.204;8.140;2023-07-13T00:18:56;19.20;64.90
73576;DHT22;61859;49.204;8.140;2023-07-13T00:21:22;19.10;65.40
73576;DHT22;61859;49.204;8.140;2023-07-13T00:23:48;19.10;65.60
73576;DHT22;61859;49.204;8.140;2023-07-13T00:26:14;19.00;65.60
73576;DHT22;61859;49.204;8.140;2023-07-13T00:28:40;19.00;66.20
73576;DHT22;61859;49.204;8.140;2023-07-13T00:31:08;18.90;66.30
73576;DHT22;61859;49.204;8.140;2023-07-13T00:33:33;18.80;67.00
73576;DHT22;61859;49.204;8.140;2023-07-13T00:35:59;18.80;67.00
73576;DHT22;61859;49.204;8.140;2023-07-13T00:38:25;18.70;68.00
73576;DHT22;61859;49.204;8.140;2023-07-13T00:40:50;18.60;68.00
73576;DHT22;61859;49.204;8.140;2023-07-13T00:43:21;18.50;68.10
73576;DHT22;61859;49.204;8.140;2023-07-13T00:48:20;18.30;68.50
73576;DHT22;61859;49.204;8.140;2023-07-13T00:50:50;18.40;68.00
73576;DHT22;61859;49.204;8.140;2023-07-13T00:53:17;18.50;67.70
73576;DHT22;61859;49.204;8.140;2023-07-13T00:55:43;18.40;67.80
73576;DHT22;61859;49.204;8.140;2023-07-13T00:58:08;18.40;68.00
73576;DHT22;61859;49.204;8.140;2023-07-13T01:00:36;18.40;68.00
73576;DHT22;61859;49.204;8.140;2023-07-13T01:03:04;18.40;67.70
73576;DHT22;61859;49.204;8.140;2023-07-13T01:05:31;18.30;67.70
73576;DHT22;61859;49.204;8.140;2023-07-13T01:07:58;18.20;68.00
73576;DHT22;61859;49.204;8.140;2023-07-13T01:10:25;18.20;67.80
73576;DHT22;61859;49.204;8.140;2023-07-13T01:12:51;18.20;67.80
73576;DHT22;61859;49.204;8.140;2023-07-13T01:15:37;18.20;67.70
73576;DHT22;61859;49.204;8.140;2023-07-13T01:18:05;18.10;68.50
73576;DHT22;61859;49.204;8.140;2023-07-13T01:20:30;18.20;67.60
73576;DHT22;61859;49.204;8.140;2023-07-13T01:23:05;18.10;68.30
73576;DHT22;61859;49.204;8.140;2023-07-13T01:25:32;18.10;68.40
73576;DHT22;61859;49.204;8.140;2023-07-13T01:27:57;18.00;68.50
73576;DHT22;61859;49.204;8.140;2023-07-13T01:30:23;18.00;68.40
73576;DHT22;61859;49.204;8.140;2023-07-13T01:32:49;17.80;68.60
73576;DHT22;61859;49.204;8.140;2023-07-13T01:35:14;17.90;68.80
73576;DHT22;61859;49.204;8.140;2023-07-13T01:37:41;17.70;68.70
73576;DHT22;61859;49.204;8.140;2023-07-13T01:40:08;17.80;68.60
73576;DHT22;61859;49.204;8.140;2023-07-13T01:42:34;17.80;68.70
73576;DHT22;61859;49.204;8.140;2023-07-13T01:44:59;17.70;68.70
73576;DHT22;61859;49.204;8.140;2023-07-13T01:47:25;17.70;69.00
73576;DHT22;61859;49.204;8.140;2023-07-13T01:49:51;17.70;69.10
73576;DHT22;61859;49.204;8.140;2023-07-13T01:52:17;17.70;69.10
73576;DHT22;61859;49.204;8.140;2023-07-13T01:54:43;17.60;69.20
73576;DHT22;61859;49.204;8.140;2023-07-13T01:57:08;17.60;68.90
73576;DHT22;61859;49.204;8.140;2023-07-13T01:59:34;17.60;69.50
73576;DHT22;61859;49.204;8.140;2023-07-13T02:01:59;17.50;69.30
73576;DHT22;61859;49.204;8.140;2023-07-13T02:04:25;17.50;69.60
73576;DHT22;61859;49.204;8.140;2023-07-13T02:06:50;17.50;70.00
73576;DHT22;61859;49.204;8.140;2023-07-13T02:09:16;17.40;70.30
73576;DHT22;61859;49.204;8.140;2023-07-13T02:11:42;17.40;70.70
73576;DHT22;61859;49.204;8.140;2023-07-13T02:14:07;17.30;70.90
73576;DHT22;61859;49.204;8.140;2023-07-13T02:16:33;17.20;71.10
73576;DHT22;61859;49.204;8.140;2023-07-13T02:18:58;17.20;71.10
73576;DHT22;61859;49.204;8.140;2023-07-13T02:21:25;17.20;71.00
73576;DHT22;61859;49.204;8.140;2023-07-13T02:23:51;17.10;71.10
73576;DHT22;61859;49.204;8.140;2023-07-13T02:26:18;17.10;70.80
73576;DHT22;61859;49.204;8.140;2023-07-13T02:28:43;17.10;70.60
73576;DHT22;61859;49.204;8.140;2023-07-13T02:31:11;17.00;70.50
73576;DHT22;61859;49.204;8.140;2023-07-13T02:33:37;17.10;70.40
73576;DHT22;61859;49.204;8.140;2023-07-13T02:36:03;17.10;70.30
73576;DHT22;61859;49.204;8.140;2023-07-13T02:38:31;17.10;70.00
73576;DHT22;61859;49.204;8.140;2023-07-13T02:40:59;17.20;70.30
73576;DHT22;61859;49.204;8.140;2023-07-13T02:43:25;17.10;70.40
73576;DHT22;61859;49.204;8.140;2023-07-13T02:45:50;17.10;70.10
73576;DHT22;61859;49.204;8.140;2023-07-13T02:48:16;17.20;70.50
73576;DHT22;61859;49.204;8.140;2023-07-13T02:50:42;17.20;70.40
73576;DHT22;61859;49.204;8.140;2023-07-13T02:53:07;17.20;70.50
73576;DHT22;61859;49.204;8.140;2023-07-13T02:55:33;17.20;70.30
73576;DHT22;61859;49.204;8.140;2023-07-13T02:57:58;17.20;70.40
73576;DHT22;61859;49.204;8.140;2023-07-13T03:00:24;17.10;70.70
73576;DHT22;61859;49.204;8.140;2023-07-13T03:02:49;17.20;70.60
73576;DHT22;61859;49.204;8.140;2023-07-13T03:05:17;17.10;70.70
73576;DHT22;61859;49.204;8.140;2023-07-13T03:07:42;17.10;71.00
73576;DHT22;61859;49.204;8.140;2023-07-13T03:10:09;17.00;71.10
73576;DHT22;61859;49.204;8.140;2023-07-13T03:12:35;17.20;71.20
73576;DHT22;61859;49.204;8.140;2023-07-13T03:15:00;17.10;71.20
73576;DHT22;61859;49.204;8.140;2023-07-13T03:17:26;17.00;71.40
73576;DHT22;61859;49.204;8.140;2023-07-13T03:19:52;17.00;71.70
73576;DHT22;61859;49.204;8.140;2023-07-13T03:22:18;16.90;71.70
73576;DHT22;61859;49.204;8.140;2023-07-13T03:24:44;16.90;72.00
73576;DHT22;61859;49.204;8.140;2023-07-13T03:27:10;16.80;72.10
73576;DHT22;61859;49.204;8.140;2023-07-13T03:29:35;16.80;72.30
73576;DHT22;61859;49.204;8.140;2023-07-13T03:32:01;16.70;72.50
73576;DHT22;61859;49.204;8.140;2023-07-13T03:34:27;16.70;72.90
73576;DHT22;61859;49.204;8.140;2023-07-13T03:36:55;16.70;73.10
73576;DHT22;61859;49.204;8.140;2023-07-13T03:39:21;16.60;73.20
73576;DHT22;61859;49.204;8.140;2023-07-13T03:41:47;16.50;73.50
73576;DHT22;61859;49.204;8.140;2023-07-13T03:44:12;16.60;73.40
73576;DHT22;61859;49.204;8.140;2023-07-13T03:46:38;16.60;73.70
73576;DHT22;61859;49.204;8.140;2023-07-13T03:49:04;16.40;74.00
73576;DHT22;61859;49.204;8.140;2023-07-13T03:51:30;16.40;73.90
73576;DHT22;61859;49.204;8.140;2023-07-13T03:53:56;16.40;73.80
73576;DHT22;61859;49.204;8.140;2023-07-13T03:56:22;16.50;74.00
73576;DHT22;61859;49.204;8.140;2023-07-13T03:58:49;16.40;74.20
73576;DHT22;61859;49.204;8.140;2023-07-13T04:01:16;16.40;74.00
73576;DHT22;61859;49.204;8.140;2023-07-13T04:03:43;16.30;74.30
73576;DHT22;61859;49.204;8.140;2023-07-13T04:06:15;16.40;74.20
73576;DHT22;61859;49.204;8.140;2023-07-13T04:08:41;16.40;74.30
73576;DHT22;61859;49.204;8.140;2023-07-13T04:11:06;16.40;74.10
73576;DHT22;61859;49.204;8.140;2023-07-13T04:13:32;16.50;73.90
73576;DHT22;61859;49.204;8.140;2023-07-13T04:15:58;16.50;74.00
73576;DHT22;61859;49.204;8.140;2023-07-13T04:18:23;16.50;74.00
73576;DHT22;61859;49.204;8.140;2023-07-13T04:20:50;16.50;74.10
73576;DHT22;61859;49.204;8.140;2023-07-13T04:23:18;16.40;74.10
73576;DHT22;61859;49.204;8.140;2023-07-13T04:25:48;16.40;74.20
73576;DHT22;61859;49.204;8.140;2023-07-13T04:28:15;16.40;74.20
73576;DHT22;61859;49.204;8.140;2023-07-13T04:30:41;16.40;74.30
73576;DHT22;61859;49.204;8.140;2023-07-13T04:33:06;16.40;74.10
73576;DHT22;61859;49.204;8.140;2023-07-13T04:35:34;16.50;74.10
73576;DHT22;61859;49.204;8.140;2023-07-13T04:38:00;16.50;74.20
73576;DHT22;61859;49.204;8.140;2023-07-13T04:40:27;16.50;74.50
73576;DHT22;61859;49.204;8.140;2023-07-13T04:42:53;16.50;74.60
73576;DHT22;61859;49.204;8.140;2023-07-13T04:45:18;16.50;74.60
73576;DHT22;61859;49.204;8.140;2023-07-13T04:47:44;16.60;74.60
73576;DHT22;61859;49.204;8.140;2023-07-13T04:50:13;16.60;74.60
73576;DHT22;61859;49.204;8.140;2023-07-13T04:52:43;16.60;74.80
73576;DHT22;61859;49.204;8.140;2023-07-13T04:55:09;16.60;74.70
73576;DHT22;61859;49.204;8.140;2023-07-13T04:57:35;16.60;75.10
73576;DHT22;61859;49.204;8.140;2023-07-13T05:00:00;16.70;74.80
73576;DHT22;61859;49.204;8.140;2023-07-13T05:02:27;16.60;74.90
73576;DHT22;61859;49.204;8.140;2023-07-13T05:04:53;16.70;75.40
73576;DHT22;61859;49.204;8.140;2023-07-13T05:07:19;16.70;75.40
73576;DHT22;61859;49.204;8.140;2023-07-13T05:09:44;16.80;75.40
73576;DHT22;61859;49.204;8.140;2023-07-13T05:12:10;16.80;75.60
73576;DHT22;61859;49.204;8.140;2023-07-13T05:14:36;16.80;75.60
73576;DHT22;61859;49.204;8.140;2023-07-13T05:17:01;16.90;75.70
73576;DHT22;61859;49.204;8.140;2023-07-13T05:19:27;17.10;75.10
73576;DHT22;61859;49.204;8.140;2023-07-13T05:21:52;17.00;74.80
73576;DHT22;61859;49.204;8.140;2023-07-13T05:24:18;17.10;74.60
73576;DHT22;61859;49.204;8.140;2023-07-13T05:26:44;17.20;73.80
73576;DHT22;61859;49.204;8.140;2023-07-13T05:29:09;17.20;73.70
73576;DHT22;61859;49.204;8.140;2023-07-13T05:31:35;17.30;73.40
73576;DHT22;61859;49.204;8.140;2023-07-13T05:34:00;17.40;72.50
73576;DHT22;61859;49.204;8.140;2023-07-13T05:36:26;17.40;72.60
73576;DHT22;61859;49.204;8.140;2023-07-13T05:38:51;17.40;72.00
73576;DHT22;61859;49.204;8.140;2023-07-13T05:41:17;17.40;73.00
73576;DHT22;61859;49.204;8.140;2023-07-13T05:43:42;17.40;72.60
73576;DHT22;61859;49.204;8.140;2023-07-13T05:46:08;17.40;73.20
73576;DHT22;61859;49.204;8.140;2023-07-13T05:48:33;17.50;73.30
73576;DHT22;61859;49.204;8.140;2023-07-13T05:50:59;17.50;73.00
73576;DHT22;61859;49.204;8.140;2023-07-13T05:53:25;17.50;72.90
73576;DHT22;61859;49.204;8.140;2023-07-13T05:55:51;17.50;72.70
73576;DHT22;61859;49.204;8.140;2023-07-13T05:58:19;17.50;72.70
73576;DHT22;61859;49.204;8.140;2023-07-13T06:00:45;17.60;73.00
73576;DHT22;61859;49.204;8.140;2023-07-13T06:03:11;17.70;72.00
73576;DHT22;61859;49.204;8.140;2023-07-13T06:05:38;17.80;71.40
73576;DHT22;61859;49.204;8.140;2023-07-13T06:08:04;18.10;71.00
73576;DHT22;61859;49.204;8.140;2023-07-13T06:10:33;18.20;69.80
73576;DHT22;61859;49.204;8.140;2023-07-13T06:12:58;18.20;68.80
73576;DHT22;61859;49.204;8.140;2023-07-13T06:15:24;18.40;68.80
73576;DHT22;61859;49.204;8.140;2023-07-13T06:17:49;18.50;69.80
73576;DHT22;61859;49.204;8.140;2023-07-13T06:20:15;18.50;70.20
73576;DHT22;61859;49.204;8.140;2023-07-13T06:22:40;18.70;69.50
73576;DHT22;61859;49.204;8.140;2023-07-13T06:25:06;18.90;69.30
73576;DHT22;61859;49.204;8.140;2023-07-13T06:27:32;18.90;68.50
73576;DHT22;61859;49.204;8.140;2023-07-13T06:29:57;19.00;68.40
73576;DHT22;61859;49.204;8.140;2023-07-13T06:32:23;19.00;67.90
73576;DHT22;61859;49.204;8.140;2023-07-13T06:34:48;19.20;67.50
73576;DHT22;61859;49.204;8.140;2023-07-13T06:37:14;19.30;67.70
73576;DHT22;61859;49.204;8.140;2023-07-13T06:39:39;19.40;67.20
73576;DHT22;61859;49.204;8.140;2023-07-13T06:42:06;19.50;66.80
73576;DHT22;61859;49.204;8.140;2023-07-13T06:44:31;19.60;66.10
73576;DHT22;61859;49.204;8.140;2023-07-13T06:46:57;19.80;65.80
73576;DHT22;61859;49.204;8.140;2023-07-13T06:49:22;19.90;65.40
73576;DHT22;61859;49.204;8.140;2023-07-13T06:51:48;20.00;65.00
73576;DHT22;61859;49.204;8.140;2023-07-13T06:54:13;20.10;63.30
73576;DHT22;61859;49.204;8.140;2023-07-13T06:56:39;20.20;62.90
73576;DHT22;61859;49.204;8.140;2023-07-13T06:59:04;20.50;63.30
73576;DHT22;61859;49.204;8.140;2023-07-13T07:01:30;20.60;62.70
73576;DHT22;61859;49.204;8.140;2023-07-13T07:03:55;20.80;62.20
73576;DHT22;61859;49.204;8.140;2023-07-13T07:06:22;21.00;60.70
73576;DHT22;61859;49.204;8.140;2023-07-13T07:08:52;21.30;59.30
73576;DHT22;61859;49.204;8.140;2023-07-13T07:11:20;21.50;58.50
73576;DHT22;61859;49.204;8.140;2023-07-13T07:13:47;21.70;56.70
73576;DHT22;61859;49.204;8.140;2023-07-13T07:16:13;21.80;56.50
73576;DHT22;61859;49.204;8.140;2023-07-13T07:18:39;21.90;56.20
73576;DHT22;61859;49.204;8.140;2023-07-13T07:21:04;22.00;56.50
73576;DHT22;61859;49.204;8.140;2023-07-13T07:23:30;22.10;55.90
73576;DHT22;61859;49.204;8.140;2023-07-13T07:25:55;22.30;55.50
73576;DHT22;61859;49.204;8.140;2023-07-13T07:28:21;22.60;54.20
73576;DHT22;61859;49.204;8.140;2023-07-13T07:30:47;22.80;54.30
73576;DHT22;61859;49.204;8.140;2023-07-13T07:33:14;23.00;53.90
73576;DHT22;61859;49.204;8.140;2023-07-13T07:35:39;23.30;52.30
73576;DHT22;61859;49.204;8.140;2023-07-13T07:38:05;23.50;51.50
73576;DHT22;61859;49.204;8.140;2023-07-13T07:40:31;23.70;50.10
73576;DHT22;61859;49.204;8.140;2023-07-13T07:42:57;23.90;50.90
73576;DHT22;61859;49.204;8.140;2023-07-13T07:45:23;24.10;50.50
73576;DHT22;61859;49.204;8.140;2023-07-13T07:47:49;24.20;49.60
73576;DHT22;61859;49.204;8.140;2023-07-13T07:50:14;24.40;49.30
73576;DHT22;61859;49.204;8.140;2023-07-13T07:52:40;24.60;48.60
73576;DHT22;61859;49.204;8.140;2023-07-13T07:55:07;24.70;47.90
73576;DHT22;61859;49.204;8.140;2023-07-13T07:57:33;24.90;47.20
73576;DHT22;61859;49.204;8.140;2023-07-13T07:59:59;24.80;47.70
73576;DHT22;61859;49.204;8.140;2023-07-13T08:02:25;25.00;47.30
73576;DHT22;61859;49.204;8.140;2023-07-13T08:04:51;25.10;46.90
73576;DHT22;61859;49.204;8.140;2023-07-13T08:07:16;25.20;46.10
73576;DHT22;61859;49.204;8.140;2023-07-13T08:09:42;25.20;47.60
73576;DHT22;61859;49.204;8.140;2023-07-13T08:12:08;25.50;47.80
73576;DHT22;61859;49.204;8.140;2023-07-13T08:14:33;25.50;46.60
73576;DHT22;61859;49.204;8.140;2023-07-13T08:16:59;25.40;46.30
73576;DHT22;61859;49.204;8.140;2023-07-13T08:19:24;25.40;46.60
73576;DHT22;61859;49.204;8.140;2023-07-13T08:21:50;25.20;47.30
73576;DHT22;61859;49.204;8.140;2023-07-13T08:24:15;25.30;47.70
73576;DHT22;61859;49.204;8.140;2023-07-13T08:26:44;25.30;46.70
73576;DHT22;61859;49.204;8.140;2023-07-13T08:29:09;25.50;47.70
73576;DHT22;61859;49.204;8.140;2023-07-13T08:31:35;25.90;46.80
73576;DHT22;61859;49.204;8.140;2023-07-13T08:34:00;26.00;45.80
73576;DHT22;61859;49.204;8.140;2023-07-13T08:36:26;26.20;45.70
73576;DHT22;61859;49.204;8.140;2023-07-13T08:38:53;26.50;45.60
73576;DHT22;61859;49.204;8.140;2023-07-13T08:41:21;26.60;45.10
73576;DHT22;61859;49.204;8.140;2023-07-13T08:43:50;26.80;44.00
73576;DHT22;61859;49.204;8.140;2023-07-13T08:46:25;26.60;42.70
73576;DHT22;61859;49.204;8.140;2023-07-13T08:49:01;26.40;43.30
73576;DHT22;61859;49.204;8.140;2023-07-13T08:51:50;26.10;43.70
73576;DHT22;61859;49.204;8.140;2023-07-13T08:54:24;26.10;43.80
73576;DHT22;61859;49.204;8.140;2023-07-13T08:56:54;26.00;44.10
73576;DHT22;61859;49.204;8.140;2023-07-13T08:59:25;25.80;44.40
73576;DHT22;61859;49.204;8.140;2023-07-13T09:05:03;25.40;43.70
73576;DHT22;61859;49.204;8.140;2023-07-13T09:07:46;25.10;44.60
73576;DHT22;61859;49.204;8.140;2023-07-13T09:10:20;24.90;44.30
73576;DHT22;61859;49.204;8.140;2023-07-13T09:13:07;25.10;44.10
73576;DHT22;61859;49.204;8.140;2023-07-13T09:15:40;25.10;44.40
73576;DHT22;61859;49.204;8.140;2023-07-13T09:18:11;25.10;44.30
73576;DHT22;61859;49.204;8.140;2023-07-13T09:20:43;25.40;44.00
73576;DHT22;61859;49.204;8.140;2023-07-13T09:23:14;25.30;44.90
73576;DHT22;61859;49.204;8.140;2023-07-13T09:25:40;25.40;43.70
73576;DHT22;61859;49.204;8.140;2023-07-13T09:28:10;25.80;44.30
73576;DHT22;61859;49.204;8.140;2023-07-13T09:30:58;26.10;43.70
73576;DHT22;61859;49.204;8.140;2023-07-13T09:33:26;26.60;43.50
73576;DHT22;61859;49.204;8.140;2023-07-13T09:35:55;26.70;42.80
73576;DHT22;61859;49.204;8.140;2023-07-13T09:38:22;26.50;42.60
73576;DHT22;61859;49.204;8.140;2023-07-13T09:41:19;26.00;42.90
73576;DHT22;61859;49.204;8.140;2023-07-13T09:46:27;25.40;43.40
73576;DHT22;61859;49.204;8.140;2023-07-13T09:48:52;25.40;43.80
73576;DHT22;61859;49.204;8.140;2023-07-13T09:51:18;25.30;43.70
73576;DHT22;61859;49.204;8.140;2023-07-13T09:53:43;25.40;43.90
73576;DHT22;61859;49.204;8.140;2023-07-13T09:56:21;25.70;43.80
73576;DHT22;61859;49.204;8.140;2023-07-13T09:58:47;26.20;42.20
73576;DHT22;61859;49.204;8.140;2023-07-13T10:01:12;27.00;41.90
73576;DHT22;61859;49.204;8.140;2023-07-13T10:03:39;27.60;40.90
73576;DHT22;61859;49.204;8.140;2023-07-13T10:06:18;28.10;39.70
73576;DHT22;61859;49.204;8.140;2023-07-13T10:08:45;28.20;38.40
73576;DHT22;61859;49.204;8.140;2023-07-13T10:13:56;28.50;39.50
73576;DHT22;61859;49.204;8.140;2023-07-13T10:16:25;28.70;38.70
73576;DHT22;61859;49.204;8.140;2023-07-13T10:19:08;28.80;38.00
73576;DHT22;61859;49.204;8.140;2023-07-13T10:21:39;28.40;37.10
73576;DHT22;61859;49.204;8.140;2023-07-13T10:24:19;27.90;37.80
73576;DHT22;61859;49.204;8.140;2023-07-13T10:26:58;27.40;39.10
73576;DHT22;61859;49.204;8.140;2023-07-13T10:29:27;27.50;38.90
73576;DHT22;61859;49.204;8.140;2023-07-13T10:31:54;27.70;38.80
73576;DHT22;61859;49.204;8.140;2023-07-13T10:34:22;28.10;37.70
73576;DHT22;61859;49.204;8.140;2023-07-13T10:36:49;28.40;37.30
73576;DHT22;61859;49.204;8.140;2023-07-13T10:39:25;28.60;37.00
73576;DHT22;61859;49.204;8.140;2023-07-13T10:42:00;28.70;36.70
73576;DHT22;61859;49.204;8.140;2023-07-13T10:44:30;28.70;36.60
73576;DHT22;61859;49.204;8.140;2023-07-13T10:46:58;28.50;36.90
73576;DHT22;61859;49.204;8.140;2023-07-13T10:49:27;28.10;36.90
73576;DHT22;61859;49.204;8.140;2023-07-13T10:51:53;27.60;38.10
73576;DHT22;61859;49.204;8.140;2023-07-13T10:54:32;27.30;38.60
73576;DHT22;61859;49.204;8.140;2023-07-13T10:57:17;26.80;39.20
73576;DHT22;61859;49.204;8.140;2023-07-13T10:59:46;26.50;39.40
73576;DHT22;61859;49.204;8.140;2023-07-13T11:02:27;26.30;39.40
73576;DHT22;61859;49.204;8.140;2023-07-13T11:04:55;26.20;38.70
73576;DHT22;61859;49.204;8.140;2023-07-13T11:07:24;26.20;39.50
73576;DHT22;61859;49.204;8.140;2023-07-13T11:10:04;26.60;38.80
73576;DHT22;61859;49.204;8.140;2023-07-13T11:12:53;27.20;37.70
73576;DHT22;61859;49.204;8.140;2023-07-13T11:15:43;28.10;36.90
73576;DHT22;61859;49.204;8.140;2023-07-13T11:18:21;28.80;35.60
73576;DHT22;61859;49.204;8.140;2023-07-13T11:20:48;28.50;35.80
73576;DHT22;61859;49.204;8.140;2023-07-13T11:25:44;27.60;36.80
73576;DHT22;61859;49.204;8.140;2023-07-13T11:36:03;27.00;38.60
73576;DHT22;61859;49.204;8.140;2023-07-13T11:38:40;27.60;37.60
73576;DHT22;61859;49.204;8.140;2023-07-13T11:41:15;27.90;37.30
73576;DHT22;61859;49.204;8.140;2023-07-13T11:43:42;28.10;37.10
73576;DHT22;61859;49.204;8.140;2023-07-13T11:46:25;28.10;36.80
73576;DHT22;61859;49.204;8.140;2023-07-13T11:48:52;27.50;37.00
73576;DHT22;61859;49.204;8.140;2023-07-13T11:51:24;27.30;37.20
73576;DHT22;61859;49.204;8.140;2023-07-13T11:53:55;27.00;37.40
73576;DHT22;61859;49.204;8.140;2023-07-13T11:56:22;26.70;37.80
73576;DHT22;61859;49.204;8.140;2023-07-13T11:58:51;26.60;38.70
73576;DHT22;61859;49.204;8.140;2023-07-13T12:01:22;27.70;38.10
73576;DHT22;61859;49.204;8.140;2023-07-13T12:03:49;28.60;36.70
73576;DHT22;61859;49.204;8.140;2023-07-13T12:06:28;29.20;36.20
73576;DHT22;61859;49.204;8.140;2023-07-13T12:09:01;30.10;35.30
73576;DHT22;61859;49.204;8.140;2023-07-13T12:11:29;30.60;34.60
73576;DHT22;61859;49.204;8.140;2023-07-13T12:13:55;31.20;33.90
73576;DHT22;61859;49.204;8.140;2023-07-13T12:16:30;31.50;33.60
73576;DHT22;61859;49.204;8.140;2023-07-13T12:18:59;31.70;33.40
73576;DHT22;61859;49.204;8.140;2023-07-13T12:21:33;30.80;33.50
73576;DHT22;61859;49.204;8.140;2023-07-13T12:24:00;30.00;34.60
73576;DHT22;61859;49.204;8.140;2023-07-13T12:26:28;29.30;35.30
73576;DHT22;61859;49.204;8.140;2023-07-13T12:28:55;29.00;35.70
73576;DHT22;61859;49.204;8.140;2023-07-13T12:31:45;28.40;35.90
73576;DHT22;61859;49.204;8.140;2023-07-13T12:34:14;28.10;36.10
73576;DHT22;61859;49.204;8.140;2023-07-13T12:36:55;27.70;36.40
73576;DHT22;61859;49.204;8.140;2023-07-13T12:39:34;27.40;36.80
73576;DHT22;61859;49.204;8.140;2023-07-13T12:42:22;27.10;36.60
73576;DHT22;61859;49.204;8.140;2023-07-13T12:44:53;26.90;37.20
73576;DHT22;61859;49.204;8.140;2023-07-13T12:47:20;26.80;37.30
73576;DHT22;61859;49.204;8.140;2023-07-13T12:49:50;26.90;37.50
73576;DHT22;61859;49.204;8.140;2023-07-13T12:52:22;27.00;38.20
73576;DHT22;61859;49.204;8.140;2023-07-13T12:55:10;27.00;37.70
73576;DHT22;61859;49.204;8.140;2023-07-13T13:00:28;27.60;38.20
73576;DHT22;61859;49.204;8.140;2023-07-13T13:02:56;28.10;37.80
73576;DHT22;61859;49.204;8.140;2023-07-13T13:05:25;28.20;38.20
73576;DHT22;61859;49.204;8.140;2023-07-13T13:07:51;28.10;37.40
73576;DHT22;61859;49.204;8.140;2023-07-13T13:10:17;27.80;37.60
73576;DHT22;61859;49.204;8.140;2023-07-13T13:12:43;27.80;37.70
73576;DHT22;61859;49.204;8.140;2023-07-13T13:15:10;27.90;37.10
73576;DHT22;61859;49.204;8.140;2023-07-13T13:17:37;28.30;38.20
73576;DHT22;61859;49.204;8.140;2023-07-13T13:20:20;28.80;36.70
73576;DHT22;61859;49.204;8.140;2023-07-13T13:22:46;28.90;36.50
73576;DHT22;61859;49.204;8.140;2023-07-13T13:25:13;28.30;36.90
73576;DHT22;61859;49.204;8.140;2023-07-13T13:27:41;27.90;37.70
73576;DHT22;61859;49.204;8.140;2023-07-13T13:30:11;27.80;37.50
73576;DHT22;61859;49.204;8.140;2023-07-13T13:32:39;27.90;37.50
73576;DHT22;61859;49.204;8.140;2023-07-13T13:35:05;27.80;37.20
73576;DHT22;61859;49.204;8.140;2023-07-13T13:37:32;27.80;37.60
73576;DHT22;61859;49.204;8.140;2023-07-13T13:39:57;28.20;37.30
73576;DHT22;61859;49.204;8.140;2023-07-13T13:42:23;28.80;37.10
73576;DHT22;61859;49.204;8.140;2023-07-13T13:44:50;29.10;36.40
73576;DHT22;61859;49.204;8.140;2023-07-13T13:47:29;29.10;36.80
73576;DHT22;61859;49.204;8.140;2023-07-13T13:49:56;28.70;36.70
73576;DHT22;61859;49.204;8.140;2023-07-13T13:52:21;28.50;37.30
73576;DHT22;61859;49.204;8.140;2023-07-13T13:54:47;28.30;37.10
73576;DHT22;61859;49.204;8.140;2023-07-13T13:57:12;28.30;36.90
73576;DHT22;61859;49.204;8.140;2023-07-13T13:59:38;28.30;36.30
73576;DHT22;61859;49.204;8.140;2023-07-13T14:02:22;28.10;36.10
73576;DHT22;61859;49.204;8.140;2023-07-13T14:04:53;28.20;36.40
73576;DHT22;61859;49.204;8.140;2023-07-13T14:07:19;28.80;35.70
73576;DHT22;61859;49.204;8.140;2023-07-13T14:09:45;29.00;35.30
73576;DHT22;61859;49.204;8.140;2023-07-13T14:12:10;28.80;35.30
73576;DHT22;61859;49.204;8.140;2023-07-13T14:14:37;28.50;36.10
73576;DHT22;61859;49.204;8.140;2023-07-13T14:17:03;28.30;36.50
73576;DHT22;61859;49.204;8.140;2023-07-13T14:19:29;28.90;35.80
73576;DHT22;61859;49.204;8.140;2023-07-13T14:21:55;29.70;35.40
73576;DHT22;61859;49.204;8.140;2023-07-13T14:24:21;30.20;34.90
73576;DHT22;61859;49.204;8.140;2023-07-13T14:26:47;30.10;34.90
73576;DHT22;61859;49.204;8.140;2023-07-13T14:29:17;30.10;35.40
73576;DHT22;61859;49.204;8.140;2023-07-13T14:31:43;30.20;35.00
73576;DHT22;61859;49.204;8.140;2023-07-13T14:34:12;30.00;35.40
73576;DHT22;61859;49.204;8.140;2023-07-13T14:36:44;29.70;35.40
73576;DHT22;61859;49.204;8.140;2023-07-13T14:39:16;29.30;35.70
73576;DHT22;61859;49.204;8.140;2023-07-13T14:41:43;29.10;36.40
73576;DHT22;61859;49.204;8.140;2023-07-13T14:46:38;28.50;36.40
73576;DHT22;61859;49.204;8.140;2023-07-13T14:49:06;28.50;37.20
73576;DHT22;61859;49.204;8.140;2023-07-13T14:51:34;28.80;35.90
73576;DHT22;61859;49.204;8.140;2023-07-13T14:54:04;28.90;35.90
73576;DHT22;61859;49.204;8.140;2023-07-13T14:56:30;29.40;35.90
73576;DHT22;61859;49.204;8.140;2023-07-13T14:58:55;29.60;35.40
73576;DHT22;61859;49.204;8.140;2023-07-13T15:01:21;29.90;35.00
73576;DHT22;61859;49.204;8.140;2023-07-13T15:03:49;29.40;35.40
73576;DHT22;61859;49.204;8.140;2023-07-13T15:06:15;29.50;36.20
73576;DHT22;61859;49.204;8.140;2023-07-13T15:08:41;30.20;35.50
73576;DHT22;61859;49.204;8.140;2023-07-13T15:11:07;30.70;34.60
73576;DHT22;61859;49.204;8.140;2023-07-13T15:13:33;31.10;34.10
73576;DHT22;61859;49.204;8.140;2023-07-13T15:16:00;31.20;34.20
73576;DHT22;61859;49.204;8.140;2023-07-13T15:18:26;31.50;34.20
73576;DHT22;61859;49.204;8.140;2023-07-13T15:20:53;32.00;34.70
73576;DHT22;61859;49.204;8.140;2023-07-13T15:23:22;32.30;33.70
73576;DHT22;61859;49.204;8.140;2023-07-13T15:25:51;32.80;34.20
73576;DHT22;61859;49.204;8.140;2023-07-13T15:28:17;33.00;32.80
73576;DHT22;61859;49.204;8.140;2023-07-13T15:30:47;32.80;33.10
73576;DHT22;61859;49.204;8.140;2023-07-13T15:33:24;32.80;33.00
73576;DHT22;61859;49.204;8.140;2023-07-13T15:35:51;32.60;33.60
73576;DHT22;61859;49.204;8.140;2023-07-13T15:38:22;32.40;33.00
73576;DHT22;61859;49.204;8.140;2023-07-13T15:40:49;32.20;34.00
73576;DHT22;61859;49.204;8.140;2023-07-13T15:43:16;32.10;33.10
73576;DHT22;61859;49.204;8.140;2023-07-13T15:45:43;31.80;33.40
73576;DHT22;61859;49.204;8.140;2023-07-13T15:48:15;31.40;33.90
73576;DHT22;61859;49.204;8.140;2023-07-13T15:50:45;31.30;34.30
73576;DHT22;61859;49.204;8.140;2023-07-13T15:53:13;31.40;34.30
73576;DHT22;61859;49.204;8.140;2023-07-13T15:55:40;31.30;34.30
73576;DHT22;61859;49.204;8.140;2023-07-13T15:58:11;30.90;34.50
73576;DHT22;61859;49.204;8.140;2023-07-13T16:00:37;30.90;34.20
73576;DHT22;61859;49.204;8.140;2023-07-13T16:03:03;30.60;34.40